createdAt,value
2022-11-06T00:00:48.309Z,9.13
2022-11-06T00:03:55.006Z,9.11
2022-11-06T00:06:57.973Z,9.09
2022-11-06T00:10:00.896Z,9.07
2022-11-06T00:13:04.209Z,9.06
2022-11-06T00:16:09.321Z,9.04
2022-11-06T00:19:12.691Z,9.03
2022-11-06T00:22:16.520Z,9.02
2022-11-06T00:25:19.439Z,9.02
2022-11-06T00:28:23.180Z,9.02
2022-11-06T00:31:29.127Z,9.02
2022-11-06T00:34:32.191Z,9.03
2022-11-06T00:37:35.832Z,9.04
2022-11-06T00:40:38.763Z,9.04
2022-11-06T00:43:42.897Z,9.04
2022-11-06T00:46:45.776Z,9.05
2022-11-06T00:49:48.720Z,9.06
2022-11-06T00:52:51.697Z,9.07
2022-11-06T00:55:54.640Z,9.08
2022-11-06T00:59:02.654Z,9.08
2022-11-06T01:02:05.738Z,9.09
2022-11-06T01:05:08.894Z,9.10
2022-11-06T01:08:12.158Z,9.10
2022-11-06T01:11:18.792Z,9.11
2022-11-06T01:14:22.950Z,9.12
2022-11-06T01:17:25.895Z,9.12
2022-11-06T01:20:28.758Z,9.12
2022-11-06T01:23:31.638Z,9.11
2022-11-06T01:26:39.308Z,9.10
2022-11-06T01:29:45.842Z,9.10
2022-11-06T01:32:48.773Z,9.09
2022-11-06T01:35:52.229Z,9.08
2022-11-06T01:38:58.041Z,9.07
2022-11-06T01:42:01.100Z,9.06
2022-11-06T01:45:52.416Z,9.05
2022-11-06T01:49:04.902Z,9.04
2022-11-06T01:52:12.297Z,9.04
2022-11-06T01:55:21.323Z,9.02
2022-11-06T01:58:26.607Z,9.01
2022-11-06T02:01:29.617Z,8.99
2022-11-06T02:04:36.450Z,8.98
2022-11-06T02:07:40.839Z,8.97
2022-11-06T02:10:44.589Z,8.95
2022-11-06T02:14:07.985Z,8.94
2022-11-06T02:17:40.048Z,8.92
2022-11-06T02:21:05.947Z,8.90
2022-11-06T02:24:28.071Z,8.88
2022-11-06T02:27:32.367Z,8.86
2022-11-06T02:30:43.177Z,8.83
2022-11-06T02:33:52.059Z,8.80
2022-11-06T02:37:03.955Z,8.78
2022-11-06T02:40:09.719Z,8.74
2022-11-06T02:43:15.879Z,8.71
2022-11-06T02:46:46.790Z,8.68
2022-11-06T02:49:57.621Z,8.66
2022-11-06T02:53:04.184Z,8.63
2022-11-06T02:56:14.528Z,8.60
2022-11-06T02:59:43.295Z,8.57
2022-11-06T03:02:52.144Z,8.54
2022-11-06T03:06:01.904Z,8.50
2022-11-06T03:09:09.943Z,8.47
2022-11-06T03:12:33.464Z,8.43
2022-11-06T03:15:48.628Z,8.40
2022-11-06T03:19:07.462Z,8.36
2022-11-06T03:22:14.373Z,8.31
2022-11-06T03:25:35.518Z,8.27
2022-11-06T03:28:43.646Z,8.23
2022-11-06T03:31:51.924Z,8.19
2022-11-06T03:35:07.268Z,8.15
2022-11-06T03:38:20.252Z,8.12
2022-11-06T03:41:33.384Z,8.09
2022-11-06T03:44:41.429Z,8.06
2022-11-06T03:47:49.668Z,8.03
2022-11-06T03:51:07.014Z,8.01
2022-11-06T03:54:29.569Z,7.97
2022-11-06T03:57:45.151Z,7.95
2022-11-06T04:00:49.651Z,7.95
2022-11-06T04:04:05.557Z,7.92
2022-11-06T04:07:13.454Z,7.88
2022-11-06T04:10:34.723Z,7.86
2022-11-06T04:14:00.868Z,7.84
2022-11-06T04:17:09.542Z,7.83
2022-11-06T04:20:38.731Z,7.81
2022-11-06T04:24:20.656Z,7.80
2022-11-06T04:27:32.541Z,7.78
2022-11-06T04:30:45.181Z,7.74
2022-11-06T04:33:58.633Z,7.73
2022-11-06T04:37:21.264Z,7.71
2022-11-06T04:40:43.351Z,7.69
2022-11-06T04:43:48.842Z,7.68
2022-11-06T04:47:00.831Z,7.65
2022-11-06T04:50:07.838Z,7.63
2022-11-06T04:53:11.584Z,7.61
2022-11-06T04:56:25.556Z,7.60
2022-11-06T04:59:32.219Z,7.59
2022-11-06T05:02:35.147Z,7.57
2022-11-06T05:05:38.223Z,7.56
2022-11-06T05:08:41.267Z,7.54
2022-11-06T05:11:44.490Z,7.52
2022-11-06T05:14:47.486Z,7.50
2022-11-06T05:17:50.373Z,7.48
2022-11-06T05:21:12.149Z,7.45
2022-11-06T05:24:15.022Z,7.43
2022-11-06T05:27:18.043Z,7.41
2022-11-06T05:30:21.583Z,7.38
2022-11-06T05:33:24.529Z,7.37
2022-11-06T05:36:27.411Z,7.35
2022-11-06T05:39:30.336Z,7.33
2022-11-06T05:42:33.304Z,7.31
2022-11-06T05:45:36.993Z,7.28
2022-11-06T05:48:40.203Z,7.26
2022-11-06T05:51:43.201Z,7.25
2022-11-06T05:54:46.138Z,7.22
2022-11-06T05:57:49.138Z,7.21
2022-11-06T06:00:52.436Z,7.17
2022-11-06T06:03:55.419Z,7.14
2022-11-06T06:06:58.475Z,7.12
2022-11-06T06:10:01.674Z,7.08
2022-11-06T06:13:04.602Z,7.05
2022-11-06T06:16:07.663Z,7.02
2022-11-06T06:19:10.632Z,7.00
2022-11-06T06:22:13.556Z,6.98
2022-11-06T06:25:22.654Z,6.97
2022-11-06T06:28:26.071Z,6.95
2022-11-06T06:31:29.498Z,6.94
2022-11-06T06:34:32.708Z,6.91
2022-11-06T06:37:35.716Z,6.89
2022-11-06T06:40:38.688Z,6.88
2022-11-06T06:43:41.617Z,6.87
2022-11-06T06:46:44.831Z,6.87
2022-11-06T06:49:47.733Z,6.87
2022-11-06T06:52:55.810Z,6.88
2022-11-06T06:56:00.684Z,6.89
2022-11-06T06:59:03.586Z,6.90
2022-11-06T07:02:06.646Z,6.91
2022-11-06T07:05:09.622Z,6.92
2022-11-06T07:08:15.351Z,6.95
2022-11-06T07:11:18.605Z,6.98
2022-11-06T07:14:21.528Z,7.02
2022-11-06T07:17:24.514Z,7.06
2022-11-06T07:20:27.518Z,7.10
2022-11-06T07:23:30.486Z,7.13
2022-11-06T07:26:33.823Z,7.16
2022-11-06T07:29:37.112Z,7.18
2022-11-06T07:32:40.063Z,7.22
2022-11-06T07:35:43.038Z,7.25
2022-11-06T07:38:46.031Z,7.29
2022-11-06T07:41:49.675Z,7.33
2022-11-06T07:44:55.480Z,7.37
2022-11-06T07:47:59.289Z,7.41
2022-11-06T07:51:06.108Z,7.45
2022-11-06T07:54:10.551Z,7.51
2022-11-06T07:57:13.692Z,7.56
2022-11-06T08:00:16.839Z,7.60
2022-11-06T08:03:20.373Z,7.65
2022-11-06T08:06:23.335Z,7.69
2022-11-06T08:09:26.245Z,7.72
2022-11-06T08:12:29.138Z,7.77
2022-11-06T08:15:32.033Z,7.80
2022-11-06T08:18:36.207Z,7.85
2022-11-06T08:21:39.292Z,7.89
2022-11-06T08:24:43.044Z,7.92
2022-11-06T08:27:46.192Z,7.95
2022-11-06T08:30:49.398Z,7.98
2022-11-06T08:33:53.552Z,8.02
2022-11-06T08:36:56.436Z,8.06
2022-11-06T08:39:59.390Z,8.11
2022-11-06T08:43:04.919Z,8.18
2022-11-06T08:46:09.710Z,8.25
2022-11-06T08:49:12.728Z,8.34
2022-11-06T08:52:15.752Z,8.43
2022-11-06T08:55:18.655Z,8.53
2022-11-06T08:58:21.646Z,8.61
2022-11-06T09:01:24.695Z,8.69
2022-11-06T09:04:27.731Z,8.77
2022-11-06T09:07:30.873Z,8.86
2022-11-06T09:10:34.120Z,8.97
2022-11-06T09:13:37.004Z,9.07
2022-11-06T09:16:39.919Z,9.16
2022-11-06T09:19:42.796Z,9.23
2022-11-06T09:22:46.488Z,9.31
2022-11-06T09:25:49.817Z,9.37
2022-11-06T09:28:52.773Z,9.44
2022-11-06T09:31:55.786Z,9.50
2022-11-06T09:34:58.865Z,9.57
2022-11-06T09:38:07.267Z,9.64
2022-11-06T09:41:47.141Z,9.70
2022-11-06T09:45:02.005Z,9.79
2022-11-06T09:48:21.211Z,9.87
2022-11-06T09:51:24.100Z,9.95
2022-11-06T09:54:38.801Z,10.04
2022-11-06T09:57:48.711Z,10.14
2022-11-06T10:00:54.272Z,10.22
2022-11-06T10:04:00.206Z,10.30
2022-11-06T10:07:03.140Z,10.38
2022-11-06T10:10:14.881Z,10.45
2022-11-06T10:13:45.477Z,10.51
2022-11-06T10:16:54.024Z,10.58
2022-11-06T10:20:00.219Z,10.64
2022-11-06T10:23:15.728Z,10.70
2022-11-06T10:26:22.096Z,10.76
2022-11-06T10:29:56.052Z,10.82
2022-11-06T10:33:11.220Z,10.84
2022-11-06T10:36:24.014Z,10.89
2022-11-06T10:39:31.819Z,10.94
2022-11-06T10:42:38.662Z,11.00
2022-11-06T10:45:47.772Z,11.10
2022-11-06T10:48:58.445Z,11.22
2022-11-06T10:52:15.719Z,11.36
2022-11-06T10:55:46.569Z,11.53
2022-11-06T10:58:49.574Z,11.74
2022-11-06T11:01:52.687Z,11.94
2022-11-06T11:04:58.193Z,12.12
2022-11-06T11:08:01.613Z,12.18
2022-11-06T11:11:13.690Z,12.15
2022-11-06T11:14:23.234Z,12.15
2022-11-06T11:17:26.177Z,12.19
2022-11-06T11:20:32.836Z,12.21
2022-11-06T11:23:36.083Z,12.21
2022-11-06T11:26:49.363Z,12.20
2022-11-06T11:29:52.295Z,12.19
2022-11-06T11:32:57.313Z,12.24
2022-11-06T11:36:02.309Z,12.31
2022-11-06T11:39:05.329Z,12.40
2022-11-06T11:42:30.898Z,12.44
2022-11-06T11:45:33.830Z,12.42
2022-11-06T11:48:51.478Z,12.45
2022-11-06T11:51:56.050Z,12.50
2022-11-06T11:54:58.995Z,12.53
2022-11-06T11:58:02.293Z,12.55
2022-11-06T12:01:07.588Z,12.58
2022-11-06T12:04:17.433Z,12.62
2022-11-06T12:07:33.973Z,12.65
2022-11-06T12:10:39.723Z,12.66
2022-11-06T12:13:42.694Z,12.66
2022-11-06T12:16:50.198Z,12.65
2022-11-06T12:19:57.768Z,12.64
2022-11-06T12:23:04.119Z,12.58
2022-11-06T12:26:33.428Z,12.53
2022-11-06T12:30:02.516Z,12.46
2022-11-06T12:33:17.612Z,12.39
2022-11-06T12:36:24.756Z,12.31
2022-11-06T12:39:32.914Z,12.25
2022-11-06T12:42:36.117Z,12.18
2022-11-06T12:45:56.835Z,12.12
2022-11-06T12:49:21.000Z,12.06
2022-11-06T12:52:41.894Z,12.02
2022-11-06T12:56:13.092Z,11.96
2022-11-06T12:59:38.274Z,11.88
2022-11-06T13:03:09.248Z,11.80
2022-11-06T13:06:21.283Z,11.71
2022-11-06T13:09:49.065Z,11.63
2022-11-06T13:13:30.788Z,11.55
2022-11-06T13:16:41.931Z,11.47
2022-11-06T13:20:12.500Z,11.40
2022-11-06T13:23:23.521Z,11.33
2022-11-06T13:26:34.739Z,11.28
2022-11-06T13:29:38.389Z,11.23
2022-11-06T13:32:48.494Z,11.20
2022-11-06T13:35:55.979Z,11.17
2022-11-06T13:39:18.046Z,11.15
2022-11-06T13:42:29.695Z,11.14
2022-11-06T13:46:14.214Z,11.13
2022-11-06T13:49:28.300Z,11.11
2022-11-06T13:52:48.588Z,11.10
2022-11-06T13:56:01.079Z,11.07
2022-11-06T13:59:16.047Z,11.05
2022-11-06T14:02:35.245Z,11.02
2022-11-06T14:05:50.767Z,11.01
2022-11-06T14:08:56.680Z,10.99
2022-11-06T14:12:03.392Z,10.97
2022-11-06T14:15:28.607Z,10.96
2022-11-06T14:18:32.328Z,10.94
2022-11-06T14:21:55.874Z,10.92
2022-11-06T14:25:02.040Z,10.90
2022-11-06T14:28:06.303Z,10.87
2022-11-06T14:31:12.676Z,10.85
2022-11-06T14:34:28.946Z,10.82
2022-11-06T14:37:31.849Z,10.79
2022-11-06T14:40:35.419Z,10.76
2022-11-06T14:43:38.423Z,10.72
2022-11-06T14:46:49.811Z,10.69
2022-11-06T14:49:55.164Z,10.63
2022-11-06T14:53:04.990Z,10.60
2022-11-06T14:56:10.817Z,10.54
2022-11-06T14:59:22.008Z,10.49
2022-11-06T15:02:31.151Z,10.43
2022-11-06T15:05:42.020Z,10.37
2022-11-06T15:08:45.413Z,10.30
2022-11-06T15:11:50.323Z,10.24
2022-11-06T15:14:55.121Z,10.18
2022-11-06T15:17:59.711Z,10.12
2022-11-06T15:21:08.502Z,10.06
2022-11-06T15:24:25.985Z,10.02
2022-11-06T15:27:43.279Z,9.98
2022-11-06T15:31:00.981Z,9.94
2022-11-06T15:34:16.616Z,9.90
2022-11-06T15:37:23.745Z,9.86
2022-11-06T15:40:38.912Z,9.83
2022-11-06T15:43:45.295Z,9.79
2022-11-06T15:46:59.068Z,9.76
2022-11-06T15:50:18.839Z,9.72
2022-11-06T15:53:26.097Z,9.70
2022-11-06T15:56:33.620Z,9.66
2022-11-06T15:59:36.586Z,9.65
2022-11-06T16:02:48.874Z,9.63
2022-11-06T16:05:53.789Z,9.61
2022-11-06T16:08:57.741Z,9.62
2022-11-06T16:12:01.087Z,9.61
2022-11-06T16:15:04.390Z,9.61
2022-11-06T16:18:16.291Z,9.60
2022-11-06T16:21:26.045Z,9.60
2022-11-06T16:24:34.172Z,9.60
2022-11-06T16:27:41.900Z,9.60
2022-11-06T16:30:48.516Z,9.61
2022-11-06T16:33:59.668Z,9.62
2022-11-06T16:37:31.623Z,9.62
2022-11-06T16:40:49.965Z,9.62
2022-11-06T16:44:22.629Z,9.61
2022-11-06T16:47:29.572Z,9.59
2022-11-06T16:50:43.381Z,9.57
2022-11-06T16:53:55.947Z,9.55
2022-11-06T16:57:12.820Z,9.53
2022-11-06T17:00:29.855Z,9.50
2022-11-06T17:03:46.358Z,9.48
2022-11-06T17:06:51.304Z,9.45
2022-11-06T17:09:56.312Z,9.43
2022-11-06T17:12:59.523Z,9.41
2022-11-06T17:16:05.524Z,9.38
2022-11-06T17:19:08.511Z,9.35
2022-11-06T17:22:11.459Z,9.33
2022-11-06T17:25:14.701Z,9.30
2022-11-06T17:28:19.045Z,9.29
2022-11-06T17:31:24.019Z,9.25
2022-11-06T17:34:32.750Z,9.23
2022-11-06T17:37:37.338Z,9.20
2022-11-06T17:40:41.502Z,9.17
2022-11-06T17:43:44.583Z,9.14
2022-11-06T17:46:47.617Z,9.12
2022-11-06T17:49:51.045Z,9.08
2022-11-06T17:52:54.140Z,9.05
2022-11-06T17:55:57.083Z,9.02
2022-11-06T17:59:00.148Z,8.99
2022-11-06T18:02:04.146Z,8.95
2022-11-06T18:05:08.389Z,8.90
2022-11-06T18:08:13.426Z,8.85
2022-11-06T18:11:16.664Z,8.81
2022-11-06T18:14:20.639Z,8.78
2022-11-06T18:17:23.657Z,8.75
2022-11-06T18:20:26.907Z,8.73
2022-11-06T18:23:30.129Z,8.70
2022-11-06T18:26:33.504Z,8.67
2022-11-06T18:29:36.720Z,8.66
2022-11-06T18:32:39.628Z,8.65
2022-11-06T18:35:42.732Z,8.63
2022-11-06T18:38:45.784Z,8.62
2022-11-06T18:41:48.974Z,8.61
2022-11-06T18:44:52.011Z,8.60
2022-11-06T18:47:54.983Z,8.61
2022-11-06T18:50:58.194Z,8.65
2022-11-06T18:54:04.617Z,8.64
2022-11-06T18:57:07.602Z,8.61
2022-11-06T19:00:13.307Z,8.58
2022-11-06T19:03:16.210Z,8.56
2022-11-06T19:06:20.577Z,8.54
2022-11-06T19:09:23.485Z,8.53
2022-11-06T19:12:26.470Z,8.51
2022-11-06T19:15:29.388Z,8.50
2022-11-06T19:18:35.133Z,8.48
2022-11-06T19:21:40.392Z,8.46
2022-11-06T19:24:43.440Z,8.44
2022-11-06T19:27:47.254Z,8.43
2022-11-06T19:30:50.988Z,8.40
2022-11-06T19:33:55.497Z,8.39
2022-11-06T19:36:58.473Z,8.36
2022-11-06T19:40:06.164Z,8.35
2022-11-06T19:43:09.654Z,8.35
2022-11-06T19:46:12.620Z,8.34
2022-11-06T19:49:16.534Z,8.34
2022-11-06T19:52:41.499Z,8.33
2022-11-06T19:55:42.831Z,8.32
2022-11-06T19:58:47.431Z,8.32
2022-11-06T20:01:51.072Z,8.31
2022-11-06T20:04:54.062Z,8.30
2022-11-06T20:07:57.116Z,8.29
2022-11-06T20:11:13.955Z,8.28
2022-11-06T20:14:21.686Z,8.27
2022-11-06T20:17:24.806Z,8.26
2022-11-06T20:20:31.833Z,8.26
2022-11-06T20:23:38.826Z,8.26
2022-11-06T20:26:42.283Z,8.26
2022-11-06T20:29:45.739Z,8.27
2022-11-06T20:32:48.844Z,8.28
2022-11-06T20:35:51.838Z,8.29
2022-11-06T20:38:57.742Z,8.30
2022-11-06T20:42:00.755Z,8.32
2022-11-06T20:45:04.888Z,8.34
2022-11-06T20:48:09.589Z,8.37
2022-11-06T20:51:15.362Z,8.40
2022-11-06T20:54:18.492Z,8.42
2022-11-06T20:57:21.503Z,8.44
2022-11-06T21:00:24.657Z,8.47
2022-11-06T21:03:27.679Z,8.49
2022-11-06T21:06:31.080Z,8.51
2022-11-06T21:09:34.206Z,8.53
2022-11-06T21:12:37.291Z,8.56
2022-11-06T21:15:40.244Z,8.58
2022-11-06T21:18:43.538Z,8.59
2022-11-06T21:21:47.103Z,8.62
2022-11-06T21:24:50.197Z,8.63
2022-11-06T21:27:53.287Z,8.65
2022-11-06T21:30:56.359Z,8.66
2022-11-06T21:34:01.373Z,8.69
2022-11-06T21:37:04.305Z,8.70
2022-11-06T21:40:07.629Z,8.72
2022-11-06T21:43:10.851Z,8.73
2022-11-06T21:46:14.884Z,8.74
2022-11-06T21:49:17.878Z,8.75
2022-11-06T21:52:42.666Z,8.75
2022-11-06T21:56:00.756Z,8.76
2022-11-06T21:59:05.574Z,8.76
2022-11-06T22:02:09.287Z,8.77
2022-11-06T22:05:12.352Z,8.77
2022-11-06T22:08:15.423Z,8.78
2022-11-06T22:11:20.136Z,8.79
2022-11-06T22:14:23.161Z,8.78
2022-11-06T22:17:26.284Z,8.79
2022-11-06T22:20:29.268Z,8.80
2022-11-06T22:23:33.726Z,8.82
2022-11-06T22:26:37.987Z,8.84
2022-11-06T22:29:41.408Z,8.86
2022-11-06T22:32:44.417Z,8.88
2022-11-06T22:35:47.491Z,8.89
2022-11-06T22:38:51.147Z,8.91
2022-11-06T22:41:54.167Z,8.91
2022-11-06T22:44:57.346Z,8.92
2022-11-06T22:48:00.562Z,8.93
2022-11-06T22:51:07.684Z,8.93
2022-11-06T22:54:10.620Z,8.94
2022-11-06T22:57:13.633Z,8.95
2022-11-06T23:00:17.792Z,8.97
2022-11-06T23:03:22.136Z,8.98
2022-11-06T23:06:26.020Z,8.99
2022-11-06T23:09:29.052Z,9.00
2022-11-06T23:12:32.079Z,9.01
2022-11-06T23:15:35.514Z,9.02
2022-11-06T23:18:38.603Z,9.03
2022-11-06T23:21:42.613Z,9.04
2022-11-06T23:24:45.929Z,9.04
2022-11-06T23:27:50.097Z,9.05
2022-11-06T23:30:53.171Z,9.06
2022-11-06T23:33:56.199Z,9.07
2022-11-06T23:36:59.122Z,9.08
2022-11-06T23:40:03.018Z,9.09
2022-11-06T23:43:05.946Z,9.09
2022-11-06T23:46:08.916Z,9.11
2022-11-06T23:49:11.910Z,9.12
2022-11-06T23:52:15.065Z,9.12
2022-11-06T23:55:18.059Z,9.14
2022-11-06T23:58:20.966Z,9.15
